This is the latest recevied weather packets stored in our database for station/object OE5ERN-10. If no packets are shown the sender has not sent any weather packets the latest 10 day(s).
| Time | Temp. | Humidity | Pressure | Rain* | Wind** | Luminosity | Snow |
|---|---|---|---|---|---|---|---|
| 1777758938 | 12.78° C | 44% | 1022.1 hPa | 0 mm | - | - | - |
| 1777758038 | 12.78° C | 43% | 1022.1 hPa | 0 mm | - | - | - |
| 1777757138 | 13.33° C | 42% | 1022.1 hPa | 0 mm | - | - | - |
| 1777756238 | 13.89° C | 42% | 1022.1 hPa | 0 mm | - | - | - |
| 1777755338 | 13.89° C | 42% | 1022.4 hPa | 0 mm | - | - | - |
| 1777754438 | 13.89° C | 42% | 1022.5 hPa | 0 mm | - | - | - |
| 1777753538 | 14.44° C | 41% | 1022.6 hPa | 0 mm | - | - | - |
| 1777752638 | 14.44° C | 41% | 1022.7 hPa | 0 mm | - | - | - |
| 1777751738 | 14.44° C | 40% | 1022.7 hPa | 0 mm | - | - | - |
| 1777750838 | 15° C | 39% | 1022.7 hPa | 0 mm | - | - | - |
| 1777749938 | 15° C | 39% | 1022.6 hPa | 0 mm | - | - | - |
| 1777749038 | 15.56° C | 38% | 1022.6 hPa | 0 mm | - | - | - |
| 1777748138 | 16.11° C | 37% | 1022.4 hPa | 0 mm | - | - | - |
| 1777747238 | 16.67° C | 36% | 1022.4 hPa | 0 mm | - | - | - |
| 1777746338 | 17.22° C | 35% | 1022.2 hPa | 0 mm | - | - | - |
| 1777745438 | 18.89° C | 32% | 1022.1 hPa | 0 mm | - | - | - |
| 1777744538 | 21.11° C | 27% | 1022.1 hPa | 0 mm | - | - | - |
| 1777743638 | 23.33° C | 21% | 1022 hPa | 0 mm | - | - | - |
| 1777742738 | 24.44° C | 20% | 1022.1 hPa | 0 mm | - | - | - |
| 1777741838 | 25.56° C | 20% | 1022.1 hPa | 0 mm | - | - | - |
| 1777740938 | 25.56° C | 20% | 1021.9 hPa | 0 mm | - | - | - |
| 1777740038 | 26.11° C | 21% | 1022.1 hPa | 0 mm | - | - | - |
| 1777739138 | 25.56° C | 22% | 1022.3 hPa | 0 mm | - | - | - |
| 1777738238 | 25.56° C | 22% | 1022.5 hPa | 0 mm | - | - | - |
| 1777737338 | 25.56° C | 22% | 1022.7 hPa | 0 mm | - | - | - |
* Rain latest hour (hover to see other rain measurements)
** Current wind speed in m/s (hover to see current wind gust speed)